Time;durP1;ratioP1;P1;durP2;ratioP2;P2;SDS_P1;SDS_P2;PMS_P1;PMS_P2;Temp;Humidity;BMP_temperature;BMP_pressure;BME280_temperature;BME280_humidity;BME280_pressure;Samples;Min_cycle;Max_cycle;Signal;HPM_P1;HPM_P2
2023/12/15 00:01:53;;;;;;;7.20;4.13;;;7.40;27.00;;;;;;5025308;28;20491;-64
2023/12/15 00:04:21;;;;;;;6.70;3.30;;;7.40;27.10;;;;;;5031965;28;20463;-65
2023/12/15 00:06:48;;;;;;;7.07;3.10;;;7.30;27.50;;;;;;5031254;28;20471;-64
2023/12/15 00:09:15;;;;;;;6.17;2.83;;;7.30;26.90;;;;;;5026348;28;20467;-65
2023/12/15 00:11:42;;;;;;;6.40;2.60;;;7.30;26.70;;;;;;5022526;28;20494;-64
2023/12/15 00:14:08;;;;;;;6.43;3.17;;;7.30;26.70;;;;;;5023772;28;20455;-65
2023/12/15 00:16:35;;;;;;;6.00;2.47;;;7.20;26.40;;;;;;5028636;28;20829;-65
2023/12/15 00:19:02;;;;;;;6.83;2.03;;;7.20;26.50;;;;;;5026884;28;20463;-65
2023/12/15 00:21:31;;;;;;;5.90;2.63;;;7.20;26.20;;;;;;5026121;28;20497;-65
2023/12/15 00:23:57;;;;;;;5.87;2.80;;;7.10;26.00;;;;;;5028342;28;20451;-65
2023/12/15 00:26:24;;;;;;;5.70;2.83;;;7.10;25.90;;;;;;5025833;28;20451;-65
2023/12/15 00:28:51;;;;;;;6.97;3.10;;;7.00;25.90;;;;;;5027142;28;20465;-65
2023/12/15 00:31:18;;;;;;;6.63;2.80;;;7.00;26.70;;;;;;5023945;28;20984;-66
2023/12/15 00:33:45;;;;;;;5.90;2.50;;;7.00;26.10;;;;;;5021657;28;20478;-65
2023/12/15 00:36:11;;;;;;;6.40;2.63;;;7.00;26.00;;;;;;5025036;28;20463;-65
2023/12/15 00:38:40;;;;;;;5.17;2.40;;;7.00;26.40;;;;;;5028296;28;20463;-65
2023/12/15 00:41:07;;;;;;;7.10;3.20;;;6.90;25.90;;;;;;5028404;28;20459;-65
2023/12/15 00:43:33;;;;;;;6.93;3.30;;;6.90;25.80;;;;;;5031258;28;20542;-64
2023/12/15 00:46:00;;;;;;;6.00;3.30;;;6.90;25.70;;;;;;5031711;28;20900;-65
2023/12/15 00:48:28;;;;;;;8.10;3.37;;;6.90;25.50;;;;;;5026353;28;20473;-65
2023/12/15 00:50:55;;;;;;;5.53;2.40;;;6.80;25.90;;;;;;5028123;28;20454;-65
2023/12/15 00:53:22;;;;;;;7.93;3.80;;;6.80;25.10;;;;;;5027704;28;20493;-65
2023/12/15 00:55:50;;;;;;;6.60;3.47;;;6.70;25.00;;;;;;5017989;28;20459;-65
2023/12/15 00:58:17;;;;;;;7.40;3.47;;;6.70;25.00;;;;;;5028809;28;20542;-64
2023/12/15 01:00:44;;;;;;;6.03;3.20;;;6.60;24.60;;;;;;5030463;28;20470;-65
2023/12/15 01:03:11;;;;;;;6.57;3.30;;;6.50;24.40;;;;;;5027868;28;20467;-65
2023/12/15 01:05:37;;;;;;;6.63;3.30;;;6.40;25.20;;;;;;5027422;28;20464;-64
2023/12/15 01:08:05;;;;;;;7.70;3.70;;;6.40;25.30;;;;;;5025783;28;20471;-65
2023/12/15 01:10:31;;;;;;;7.67;3.70;;;6.30;24.60;;;;;;5024450;28;20455;-65
2023/12/15 01:13:00;;;;;;;8.40;4.07;;;6.20;24.70;;;;;;5023870;28;20489;-65
2023/12/15 01:15:26;;;;;;;7.20;3.80;;;6.20;24.80;;;;;;5027640;28;20614;-65
2023/12/15 01:17:53;;;;;;;8.03;4.23;;;6.10;25.50;;;;;;5028720;28;20459;-64
2023/12/15 01:20:20;;;;;;;8.70;4.23;;;6.10;25.00;;;;;;5025715;28;20466;-65
2023/12/15 01:22:47;;;;;;;7.90;3.97;;;6.00;25.00;;;;;;5029013;28;20467;-64
2023/12/15 01:25:14;;;;;;;8.80;4.70;;;6.00;25.10;;;;;;5024390;28;20469;-64
2023/12/15 01:27:41;;;;;;;9.67;5.47;;;6.00;25.10;;;;;;5024481;28;20463;-65
2023/12/15 01:30:09;;;;;;;9.10;4.80;;;5.90;25.10;;;;;;5026322;28;20456;-65
2023/12/15 01:32:36;;;;;;;10.70;4.80;;;5.90;25.00;;;;;;5024976;28;20483;-65
2023/12/15 01:35:04;;;;;;;8.93;4.50;;;5.80;24.90;;;;;;5026444;28;20469;-65
2023/12/15 01:37:30;;;;;;;12.30;6.60;;;5.80;25.00;;;;;;5024753;28;20949;-65
2023/12/15 01:39:57;;;;;;;11.80;4.30;;;5.80;25.00;;;;;;5027652;28;20465;-65
2023/12/15 01:42:26;;;;;;;10.83;5.53;;;5.70;25.10;;;;;;5025669;28;20479;-65
2023/12/15 01:44:53;;;;;;;10.23;4.83;;;5.70;25.20;;;;;;5024928;28;20459;-65
2023/12/15 01:47:24;;;;;;;9.70;5.20;;;5.70;25.00;;;;;;5024498;28;20485;-65
2023/12/15 01:49:51;;;;;;;9.70;5.50;;;5.60;25.10;;;;;;5029488;28;20545;-65
2023/12/15 01:52:18;;;;;;;10.50;5.73;;;5.60;25.10;;;;;;5027155;28;21008;-65
2023/12/15 01:54:45;;;;;;;11.30;5.73;;;5.60;25.20;;;;;;5028426;28;20823;-65
2023/12/15 01:57:13;;;;;;;11.63;5.80;;;5.60;25.40;;;;;;5027130;28;20463;-65
2023/12/15 01:59:44;;;;;;;12.67;6.93;;;5.70;25.50;;;;;;5029630;28;20459;-65
2023/12/15 02:02:11;;;;;;;9.50;5.07;;;5.70;25.70;;;;;;5022917;28;20483;-65
2023/12/15 02:04:40;;;;;;;10.60;5.80;;;5.70;25.50;;;;;;5023316;28;20542;-65
2023/12/15 02:07:07;;;;;;;9.67;5.80;;;5.70;25.60;;;;;;5024818;28;21238;-65
2023/12/15 02:09:33;;;;;;;9.50;5.13;;;5.70;25.60;;;;;;5027197;28;20506;-65
2023/12/15 02:12:00;;;;;;;11.17;5.73;;;5.70;25.60;;;;;;5028275;28;20480;-65
2023/12/15 02:14:29;;;;;;;10.90;6.03;;;5.70;25.60;;;;;;5024939;28;20483;-65
2023/12/15 02:16:56;;;;;;;12.03;6.27;;;5.70;25.60;;;;;;5028698;28;20489;-65
2023/12/15 02:19:23;;;;;;;12.17;5.70;;;5.70;25.70;;;;;;5030704;28;20471;-65
2023/12/15 02:21:51;;;;;;;13.70;6.60;;;5.70;26.30;;;;;;5031036;28;20997;-65
2023/12/15 02:24:20;;;;;;;9.87;5.53;;;5.80;25.70;;;;;;5026804;28;20530;-65
2023/12/15 02:26:46;;;;;;;11.80;6.50;;;5.80;25.70;;;;;;5030014;28;20465;-66
2023/12/15 02:29:13;;;;;;;9.40;6.63;;;5.80;25.70;;;;;;5030554;28;20458;-65
2023/12/15 02:31:40;;;;;;;9.83;6.23;;;5.80;25.60;;;;;;5032579;28;20471;-65
2023/12/15 02:34:07;;;;;;;9.37;5.27;;;5.80;25.70;;;;;;5030521;28;20485;-65
2023/12/15 02:36:34;;;;;;;10.00;5.97;;;5.90;25.70;;;;;;5029839;28;20469;-65
2023/12/15 02:39:02;;;;;;;10.00;5.23;;;5.80;25.70;;;;;;5027278;28;20932;-65
2023/12/15 02:41:30;;;;;;;9.87;6.20;;;5.90;25.80;;;;;;5029731;28;20565;-65
2023/12/15 02:43:57;;;;;;;9.93;5.80;;;5.90;25.80;;;;;;5031170;28;20974;-65
2023/12/15 02:46:24;;;;;;;9.40;5.03;;;5.90;26.40;;;;;;5026523;28;20522;-65
2023/12/15 02:48:51;;;;;;;11.20;5.67;;;5.90;25.80;;;;;;5027844;28;20478;-65
2023/12/15 02:51:28;;;;;;;11.13;5.93;;;6.00;25.70;;;;;;5026569;28;20472;-65
2023/12/15 02:53:55;;;;;;;12.13;6.73;;;6.00;26.00;;;;;;5031819;28;20478;-65
2023/12/15 02:56:22;;;;;;;12.07;5.93;;;6.00;25.80;;;;;;5027324;28;20550;-65
2023/12/15 02:58:50;;;;;;;12.50;5.80;;;6.00;25.80;;;;;;5030082;28;20462;-65
2023/12/15 03:01:17;;;;;;;10.87;6.40;;;6.00;26.50;;;;;;5028114;28;20475;-65
2023/12/15 03:03:44;;;;;;;11.67;6.20;;;6.00;25.70;;;;;;5029400;28;20826;-65
2023/12/15 03:06:11;;;;;;;10.87;6.50;;;6.00;25.70;;;;;;5028026;28;20463;-65
2023/12/15 03:08:38;;;;;;;10.40;6.50;;;6.00;25.70;;;;;;5026202;28;20471;-65
2023/12/15 03:11:06;;;;;;;10.57;6.10;;;6.00;25.50;;;;;;5028427;28;20459;-65
2023/12/15 03:13:34;;;;;;;11.00;5.67;;;6.00;25.50;;;;;;5028364;28;20565;-66
2023/12/15 03:16:08;;;;;;;10.83;5.80;;;6.10;25.40;;;;;;5029111;28;20467;-65
2023/12/15 03:18:35;;;;;;;10.97;5.47;;;6.10;25.40;;;;;;5025807;28;20459;-65
2023/12/15 03:21:02;;;;;;;12.10;6.73;;;6.10;25.40;;;;;;5025911;28;20474;-66
2023/12/15 03:23:29;;;;;;;9.40;4.50;;;6.10;25.50;;;;;;5027757;28;20571;-65
2023/12/15 03:25:56;;;;;;;10.13;6.00;;;6.10;25.40;;;;;;5027789;28;20498;-66
2023/12/15 03:28:23;;;;;;;7.97;4.70;;;6.10;26.10;;;;;;5027294;28;20941;-65
2023/12/15 03:30:50;;;;;;;10.23;5.43;;;6.10;25.90;;;;;;5026316;28;20486;-66
2023/12/15 03:33:18;;;;;;;8.30;4.30;;;6.10;25.30;;;;;;5025559;28;20846;-65
2023/12/15 03:35:45;;;;;;;8.23;4.40;;;6.10;25.80;;;;;;5028433;28;20838;-64
2023/12/15 03:38:13;;;;;;;8.80;4.83;;;6.10;25.20;;;;;;5026067;28;20473;-63
2023/12/15 03:40:40;;;;;;;8.17;4.47;;;6.10;25.70;;;;;;5028388;28;20459;-65
2023/12/15 03:43:07;;;;;;;8.67;4.77;;;6.10;25.00;;;;;;5027567;28;20482;-65
2023/12/15 03:45:33;;;;;;;9.03;4.73;;;6.00;25.00;;;;;;5027810;28;20485;-64
2023/12/15 03:48:00;;;;;;;8.60;4.67;;;5.90;25.00;;;;;;5028852;28;20470;-64
2023/12/15 03:50:29;;;;;;;8.50;4.20;;;5.90;25.10;;;;;;5025907;28;20462;-64
2023/12/15 03:52:56;;;;;;;9.07;5.00;;;5.80;25.10;;;;;;5026196;28;20482;-65
2023/12/15 03:55:23;;;;;;;8.37;4.60;;;5.80;25.10;;;;;;5028019;28;20847;-65
2023/12/15 03:57:50;;;;;;;8.33;4.80;;;5.70;25.30;;;;;;5031411;28;20467;-64
2023/12/15 04:00:20;;;;;;;7.70;4.27;;;5.70;25.30;;;;;;5029807;28;20555;-65
2023/12/15 04:02:47;;;;;;;9.45;5.00;;;5.70;25.30;;;;;;5024311;28;20461;-64
2023/12/15 04:05:14;;;;;;;8.17;4.67;;;5.70;26.30;;;;;;5028332;28;20200;-64
2023/12/15 04:07:42;;;;;;;10.30;5.10;;;5.80;25.50;;;;;;5028084;28;20974;-64
2023/12/15 04:10:10;;;;;;;8.17;4.63;;;5.70;25.30;;;;;;5027884;28;20455;-64
2023/12/15 04:12:36;;;;;;;8.10;4.57;;;5.80;25.20;;;;;;5027585;28;20474;-63
2023/12/15 04:15:04;;;;;;;8.77;4.37;;;5.80;25.30;;;;;;5027105;28;20573;-64
2023/12/15 04:17:31;;;;;;;9.80;5.33;;;5.70;25.30;;;;;;5027769;28;20541;-64
2023/12/15 04:19:58;;;;;;;7.87;4.57;;;5.70;25.50;;;;;;5056049;22;20555;-62
2023/12/15 04:22:25;;;;;;;7.87;4.00;;;5.80;26.20;;;;;;5063364;28;20480;-62
2023/12/15 04:24:53;;;;;;;8.77;4.67;;;5.80;25.60;;;;;;5065389;28;20971;-63
2023/12/15 04:27:20;;;;;;;8.37;4.33;;;5.80;26.00;;;;;;5065615;28;21085;-62
2023/12/15 04:29:46;;;;;;;8.40;4.00;;;5.80;25.70;;;;;;5066620;28;20457;-63
2023/12/15 04:32:14;;;;;;;7.20;4.03;;;5.70;25.80;;;;;;5066515;28;21188;-62
2023/12/15 04:34:40;;;;;;;10.57;4.00;;;5.70;25.70;;;;;;5066196;28;20516;-62
2023/12/15 04:37:07;;;;;;;7.47;4.27;;;5.80;25.80;;;;;;5064089;28;20474;-63
2023/12/15 04:39:34;;;;;;;7.83;4.13;;;5.80;25.80;;;;;;5066841;28;20461;-62
2023/12/15 04:42:02;;;;;;;8.30;5.10;;;5.70;25.90;;;;;;5065977;28;20560;-63
2023/12/15 04:44:29;;;;;;;10.10;4.13;;;5.80;25.80;;;;;;5065205;28;20453;-63
2023/12/15 04:46:56;;;;;;;12.83;4.43;;;5.70;25.70;;;;;;5065774;28;20518;-62
2023/12/15 04:49:23;;;;;;;9.03;4.60;;;5.70;25.90;;;;;;5066263;28;20460;-62
2023/12/15 04:51:50;;;;;;;7.87;5.33;;;5.70;26.00;;;;;;5062361;28;20520;-63
2023/12/15 04:54:17;;;;;;;6.83;3.80;;;5.70;26.10;;;;;;5063883;28;20516;-64
2023/12/15 04:56:44;;;;;;;8.27;4.10;;;5.70;26.10;;;;;;5063385;28;21030;-63
2023/12/15 04:59:13;;;;;;;9.20;4.60;;;5.70;26.30;;;;;;5066036;28;20942;-63
2023/12/15 05:01:39;;;;;;;8.70;4.77;;;5.70;26.30;;;;;;5061445;28;20481;-64
2023/12/15 05:04:06;;;;;;;8.77;4.63;;;5.60;26.30;;;;;;5066472;28;20532;-64
2023/12/15 05:06:34;;;;;;;7.80;4.87;;;5.70;26.40;;;;;;5066406;28;20836;-63
2023/12/15 05:09:04;;;;;;;9.07;4.80;;;5.70;26.40;;;;;;5062231;28;20461;-62
2023/12/15 05:11:34;;;;;;;8.20;5.43;;;5.70;26.30;;;;;;5065284;28;20484;-62
2023/12/15 05:14:00;;;;;;;8.20;4.80;;;5.70;26.30;;;;;;5065571;28;21250;-61
2023/12/15 05:16:29;;;;;;;8.50;5.10;;;5.70;26.30;;;;;;5064403;28;20473;-61
2023/12/15 05:18:55;;;;;;;9.37;5.60;;;5.70;26.30;;;;;;5063656;28;20472;-62
2023/12/15 05:21:22;;;;;;;9.30;5.53;;;5.70;26.40;;;;;;5066633;28;20465;-62
2023/12/15 05:23:49;;;;;;;7.70;4.97;;;5.80;26.20;;;;;;5063695;28;20487;-61
2023/12/15 05:26:16;;;;;;;10.20;5.30;;;5.70;26.30;;;;;;5066999;28;20485;-61
2023/12/15 05:28:44;;;;;;;7.07;4.40;;;5.70;26.30;;;;;;5064795;28;20501;-62
2023/12/15 05:31:11;;;;;;;8.10;5.17;;;5.70;26.30;;;;;;5066014;28;20503;-62
2023/12/15 05:33:39;;;;;;;10.97;5.40;;;5.70;26.30;;;;;;5066017;28;20829;-62
2023/12/15 05:36:06;;;;;;;9.03;4.73;;;5.70;27.00;;;;;;5064912;28;20964;-61
2023/12/15 05:38:33;;;;;;;8.50;4.90;;;5.70;26.40;;;;;;5065392;28;20468;-62
2023/12/15 05:40:59;;;;;;;7.90;5.30;;;5.70;26.50;;;;;;5065632;28;20488;-62
2023/12/15 05:43:26;;;;;;;9.97;5.90;;;5.70;26.50;;;;;;5064914;28;20485;-61
2023/12/15 05:45:53;;;;;;;10.50;6.63;;;5.70;26.60;;;;;;5063504;28;20468;-61
2023/12/15 05:48:19;;;;;;;9.90;5.53;;;5.70;26.60;;;;;;5065625;28;20500;-61
2023/12/15 05:50:47;;;;;;;9.47;5.70;;;5.70;26.50;;;;;;5065754;28;20456;-62
2023/12/15 05:53:14;;;;;;;9.97;5.87;;;5.70;26.50;;;;;;5066932;28;20481;-64
2023/12/15 05:55:41;;;;;;;9.50;6.37;;;5.70;26.60;;;;;;5067762;28;20503;-62
2023/12/15 05:58:08;;;;;;;9.37;5.23;;;5.70;26.60;;;;;;5070631;28;20468;-61
2023/12/15 06:00:34;;;;;;;8.87;5.60;;;5.70;26.50;;;;;;5069687;28;20472;-62
2023/12/15 06:03:01;;;;;;;10.50;6.37;;;5.70;26.60;;;;;;5063928;28;21525;-61
2023/12/15 06:05:28;;;;;;;10.70;6.07;;;5.70;26.60;;;;;;5068788;28;20457;-62
2023/12/15 06:07:56;;;;;;;8.30;5.57;;;5.70;26.50;;;;;;5067669;28;20575;-61
2023/12/15 06:10:23;;;;;;;12.37;6.10;;;5.70;26.60;;;;;;5069032;28;20609;-61
2023/12/15 06:12:50;;;;;;;7.80;4.63;;;5.70;26.50;;;;;;5068845;28;20483;-61
2023/12/15 06:15:16;;;;;;;9.53;5.50;;;5.70;26.40;;;;;;5065385;28;20469;-62
2023/12/15 06:17:43;;;;;;;9.47;6.50;;;5.70;26.30;;;;;;5068503;28;20460;-61
2023/12/15 06:20:13;;;;;;;9.77;5.70;;;5.70;26.30;;;;;;5068080;28;20469;-62
2023/12/15 06:22:40;;;;;;;12.27;5.73;;;5.70;26.30;;;;;;5067858;28;20481;-62
2023/12/15 06:25:09;;;;;;;10.83;6.00;;;5.70;26.20;;;;;;5065597;28;20457;-61
2023/12/15 06:27:36;;;;;;;11.07;6.27;;;5.70;26.10;;;;;;5065754;28;21214;-61
2023/12/15 06:30:03;;;;;;;10.10;5.87;;;5.70;26.10;;;;;;5069447;28;20457;-61
2023/12/15 06:32:29;;;;;;;8.43;5.17;;;5.70;26.00;;;;;;5068109;28;20480;-62
2023/12/15 06:34:56;;;;;;;9.97;5.40;;;5.70;25.90;;;;;;5066030;28;20481;-62
2023/12/15 06:37:23;;;;;;;12.27;6.40;;;5.70;25.90;;;;;;5067982;28;20845;-60
2023/12/15 06:39:50;;;;;;;8.53;4.90;;;5.70;25.80;;;;;;5068831;28;20469;-61
2023/12/15 06:42:18;;;;;;;9.40;5.47;;;5.70;25.80;;;;;;5069160;28;20485;-61
2023/12/15 06:44:46;;;;;;;8.20;5.00;;;5.70;25.70;;;;;;5068556;28;20492;-61
2023/12/15 06:47:13;;;;;;;8.67;4.60;;;5.70;25.60;;;;;;5064544;28;20456;-61
2023/12/15 06:49:40;;;;;;;8.50;4.57;;;5.70;25.60;;;;;;5066945;28;20543;-62
2023/12/15 06:52:07;;;;;;;8.77;5.40;;;5.70;25.40;;;;;;5066718;28;21001;-62
2023/12/15 06:54:34;;;;;;;10.43;4.80;;;5.70;25.20;;;;;;5067155;28;20477;-62
2023/12/15 06:57:01;;;;;;;9.00;5.40;;;5.70;25.10;;;;;;5068241;28;20453;-62
2023/12/15 06:59:29;;;;;;;9.37;5.57;;;5.70;24.90;;;;;;5067081;28;20453;-62
2023/12/15 07:01:55;;;;;;;10.20;5.50;;;5.70;24.80;;;;;;5063643;28;20584;-63
2023/12/15 07:04:22;;;;;;;8.50;5.10;;;5.70;24.80;;;;;;5067719;28;20461;-62
2023/12/15 07:06:49;;;;;;;10.83;6.23;;;5.70;24.70;;;;;;5070561;28;20468;-62
2023/12/15 07:09:15;;;;;;;9.40;5.37;;;5.70;24.70;;;;;;5070700;28;20449;-62
2023/12/15 07:11:42;;;;;;;9.97;6.50;;;5.70;24.70;;;;;;5064260;28;20485;-62
2023/12/15 07:14:09;;;;;;;10.10;6.63;;;5.70;24.80;;;;;;5068623;28;20468;-62
2023/12/15 07:16:37;;;;;;;11.00;6.20;;;5.70;24.60;;;;;;5068200;28;20461;-62
2023/12/15 07:19:03;;;;;;;11.80;6.60;;;5.70;24.70;;;;;;5070276;28;20454;-62
2023/12/15 07:21:30;;;;;;;10.67;6.70;;;5.70;24.70;;;;;;5061987;28;20892;-65
2023/12/15 07:23:57;;;;;;;10.80;6.90;;;5.70;24.60;;;;;;5059744;28;20466;-66
2023/12/15 07:26:24;;;;;;;13.07;7.27;;;5.70;24.60;;;;;;5068409;28;20457;-66
2023/12/15 07:28:51;;;;;;;12.00;7.23;;;5.70;24.60;;;;;;5059632;28;20538;-67
2023/12/15 07:31:18;;;;;;;11.83;7.30;;;5.70;24.50;;;;;;5061590;28;20478;-66
2023/12/15 07:33:46;;;;;;;10.10;6.13;;;5.80;24.50;;;;;;5063111;28;20466;-66
2023/12/15 07:36:12;;;;;;;12.67;6.83;;;5.70;24.50;;;;;;5070042;28;20539;-67
2023/12/15 07:38:39;;;;;;;10.93;6.33;;;5.80;24.40;;;;;;5069167;28;20806;-66
2023/12/15 07:41:06;;;;;;;10.50;6.67;;;5.80;24.40;;;;;;5068852;28;20457;-64
2023/12/15 07:43:33;;;;;;;10.33;5.63;;;5.80;24.20;;;;;;5068742;28;20468;-64
2023/12/15 07:46:00;;;;;;;12.67;7.43;;;5.80;24.20;;;;;;5069925;28;21240;-65
2023/12/15 07:48:27;;;;;;;10.03;6.30;;;5.80;24.10;;;;;;5068985;28;20469;-65
2023/12/15 07:50:55;;;;;;;10.03;6.53;;;5.80;24.20;;;;;;5069358;28;20976;-65
2023/12/15 07:53:22;;;;;;;8.93;5.90;;;5.90;24.10;;;;;;5066112;28;20519;-65
2023/12/15 07:55:48;;;;;;;9.63;6.27;;;5.90;23.90;;;;;;5067602;28;20484;-65
2023/12/15 07:58:15;;;;;;;9.53;5.73;;;5.90;23.70;;;;;;5070604;28;20457;-65
2023/12/15 08:00:42;;;;;;;10.40;6.57;;;6.00;23.50;;;;;;5066654;28;20453;-65
2023/12/15 08:03:09;;;;;;;10.67;6.33;;;5.90;23.50;;;;;;5067509;28;20584;-65
2023/12/15 08:05:36;;;;;;;8.83;5.63;;;5.90;23.30;;;;;;5067596;28;20502;-66
2023/12/15 08:08:05;;;;;;;10.90;6.60;;;5.90;23.40;;;;;;5067529;28;20845;-66
2023/12/15 08:10:34;;;;;;;10.27;5.37;;;5.90;23.50;;;;;;5064733;28;20458;-68
2023/12/15 08:13:01;;;;;;;9.60;5.97;;;5.90;23.40;;;;;;5065024;28;20485;-66
2023/12/15 08:15:28;;;;;;;10.90;7.00;;;5.90;23.30;;;;;;5068586;28;20488;-66
2023/12/15 08:17:54;;;;;;;10.67;5.57;;;5.90;23.30;;;;;;5062873;28;20526;-66
2023/12/15 08:20:22;;;;;;;8.90;5.47;;;6.00;23.20;;;;;;5107820;23;20503;-67
2023/12/15 08:22:48;;;;;;;7.70;5.07;;;6.00;23.30;;;;;;5069951;28;20543;-65
2023/12/15 08:25:17;;;;;;;8.97;4.90;;;6.00;23.10;;;;;;5071654;28;20453;-65
2023/12/15 08:27:43;;;;;;;10.53;5.60;;;6.00;22.90;;;;;;5069993;28;20546;-66
2023/12/15 08:30:11;;;;;;;10.43;6.47;;;6.00;22.70;;;;;;5072016;28;20458;-64
2023/12/15 08:32:38;;;;;;;10.10;6.23;;;6.00;22.50;;;;;;5069514;28;20492;-64
2023/12/15 08:35:05;;;;;;;10.10;6.50;;;6.00;22.70;;;;;;5072244;28;20543;-65
2023/12/15 08:37:32;;;;;;;13.37;8.70;;;6.10;22.60;;;;;;5071043;28;20457;-64
2023/12/15 08:39:58;;;;;;;12.50;7.53;;;6.10;22.60;;;;;;5072453;28;20975;-66
2023/12/15 08:42:26;;;;;;;14.93;8.17;;;6.10;22.50;;;;;;5080192;28;20480;-64
2023/12/15 08:44:53;;;;;;;14.13;8.50;;;6.10;22.40;;;;;;5075264;28;20483;-65
2023/12/15 08:47:20;;;;;;;28.97;15.07;;;6.10;22.40;;;;;;5073254;28;20456;-65
2023/12/15 08:49:47;;;;;;;33.10;19.57;;;6.20;22.30;;;;;;5068615;28;20464;-65
2023/12/15 08:52:14;;;;;;;34.83;20.23;;;6.20;22.20;;;;;;5073429;28;20604;-65
2023/12/15 08:54:41;;;;;;;27.70;15.80;;;6.20;22.00;;;;;;5070580;28;20461;-65
2023/12/15 08:57:08;;;;;;;24.20;13.17;;;6.30;22.00;;;;;;5075136;28;20453;-66
2023/12/15 08:59:36;;;;;;;13.53;7.53;;;6.30;21.70;;;;;;5076464;28;20453;-66
2023/12/15 09:02:02;;;;;;;10.10;6.60;;;6.40;21.70;;;;;;5066730;28;20477;-65
2023/12/15 09:04:29;;;;;;;12.20;6.70;;;6.40;21.70;;;;;;5070531;28;20464;-65
2023/12/15 09:06:56;;;;;;;14.93;8.30;;;6.40;21.60;;;;;;5074327;28;20460;-66
2023/12/15 09:09:23;;;;;;;12.10;7.87;;;6.40;21.50;;;;;;5070022;28;20457;-65
2023/12/15 09:11:50;;;;;;;14.43;8.93;;;6.50;21.60;;;;;;5074144;28;20522;-65
2023/12/15 09:14:18;;;;;;;17.07;10.00;;;6.50;21.50;;;;;;5064563;28;20465;-64
2023/12/15 09:16:47;;;;;;;14.53;9.00;;;6.50;21.40;;;;;;5072067;28;20473;-65
2023/12/15 09:19:14;;;;;;;12.73;8.37;;;6.50;21.40;;;;;;5070221;28;20457;-65
2023/12/15 09:21:41;;;;;;;11.50;7.70;;;6.50;21.30;;;;;;5070562;28;20475;-65
2023/12/15 09:24:08;;;;;;;12.33;8.30;;;6.60;21.30;;;;;;5073858;28;20475;-65
2023/12/15 09:26:35;;;;;;;10.87;7.13;;;6.60;21.00;;;;;;5072797;28;20449;-65
2023/12/15 09:29:01;;;;;;;11.97;7.03;;;6.60;20.90;;;;;;5073179;28;20465;-66
2023/12/15 09:31:28;;;;;;;12.97;7.13;;;6.70;20.90;;;;;;5075688;28;20977;-65
2023/12/15 09:33:56;;;;;;;12.83;6.67;;;6.70;20.90;;;;;;5074330;28;20814;-64
2023/12/15 09:36:24;;;;;;;15.93;6.67;;;6.70;21.00;;;;;;5074297;28;20483;-64
2023/12/15 09:38:50;;;;;;;12.80;6.93;;;6.90;21.00;;;;;;5073189;28;20511;-65
2023/12/15 09:41:17;;;;;;;11.50;6.80;;;7.10;20.60;;;;;;5075280;28;20459;-64
2023/12/15 09:43:44;;;;;;;9.80;5.80;;;7.30;20.30;;;;;;5073631;28;20467;-67
2023/12/15 09:46:11;;;;;;;10.30;6.20;;;7.40;19.70;;;;;;5075973;28;20453;-64
2023/12/15 09:48:39;;;;;;;9.07;5.57;;;7.60;19.40;;;;;;5071343;28;20468;-66
2023/12/15 09:51:09;;;;;;;11.30;5.83;;;7.80;18.90;;;;;;5067875;28;20461;-67
2023/12/15 09:53:38;;;;;;;8.80;4.80;;;8.00;18.50;;;;;;5072821;28;20976;-66
2023/12/15 09:56:06;;;;;;;14.70;6.00;;;8.30;18.30;;;;;;5072724;28;20481;-65
2023/12/15 09:58:33;;;;;;;8.80;5.30;;;8.60;17.70;;;;;;5072390;28;20826;-65
2023/12/15 10:00:59;;;;;;;8.30;5.37;;;8.80;17.00;;;;;;5077840;28;20469;-66
2023/12/15 10:03:26;;;;;;;8.00;5.47;;;9.00;16.70;;;;;;5073744;28;20480;-65
2023/12/15 10:05:53;;;;;;;8.17;5.27;;;9.20;16.30;;;;;;5072167;28;20453;-64
2023/12/15 10:08:23;;;;;;;9.30;6.03;;;9.20;15.70;;;;;;5073639;28;20456;-64
2023/12/15 10:10:50;;;;;;;7.83;4.87;;;9.30;15.60;;;;;;5073787;28;20463;-64
2023/12/15 10:13:17;;;;;;;9.23;5.90;;;9.30;15.00;;;;;;5071257;28;20980;-63
2023/12/15 10:15:44;;;;;;;10.07;6.10;;;9.40;14.90;;;;;;5073886;28;20476;-63
2023/12/15 10:18:13;;;;;;;10.37;5.90;;;9.30;14.90;;;;;;5073922;28;20465;-65
2023/12/15 10:20:40;;;;;;;9.70;5.90;;;9.30;14.60;;;;;;5074171;28;20460;-65
2023/12/15 10:23:07;;;;;;;10.20;6.50;;;9.30;14.50;;;;;;5074945;28;20980;-65
2023/12/15 10:25:35;;;;;;;11.67;6.53;;;9.30;14.70;;;;;;5071133;28;20464;-63
2023/12/15 10:28:04;;;;;;;12.20;6.53;;;9.30;14.50;;;;;;5072714;28;20479;-62
2023/12/15 10:30:31;;;;;;;11.37;6.53;;;9.30;14.30;;;;;;5071057;28;20509;-64
2023/12/15 10:32:59;;;;;;;7.63;5.33;;;9.30;14.50;;;;;;5070390;28;20905;-64
2023/12/15 10:35:28;;;;;;;8.80;5.63;;;9.30;14.70;;;;;;5071431;28;21172;-64
2023/12/15 10:37:55;;;;;;;9.80;6.53;;;9.40;15.00;;;;;;5070867;28;20465;-64
2023/12/15 10:40:22;;;;;;;10.03;7.27;;;9.50;15.10;;;;;;5075355;28;20460;-62
2023/12/15 10:42:52;;;;;;;8.80;6.00;;;9.60;15.00;;;;;;5071575;28;20565;-64
2023/12/15 10:45:20;;;;;;;9.97;6.30;;;9.70;14.70;;;;;;5065890;28;20468;-64
2023/12/15 10:47:48;;;;;;;9.60;5.43;;;9.80;14.30;;;;;;5073223;28;20818;-63
2023/12/15 10:50:15;;;;;;;8.10;5.53;;;9.80;14.10;;;;;;5069392;28;20463;-64
2023/12/15 10:52:45;;;;;;;9.30;6.00;;;9.80;14.20;;;;;;5071208;28;20487;-64
2023/12/15 10:55:13;;;;;;;11.00;6.50;;;9.80;14.10;;;;;;5070849;28;20472;-64
2023/12/15 10:57:41;;;;;;;9.47;5.77;;;9.80;14.10;;;;;;5076247;28;20511;-64
2023/12/15 11:00:10;;;;;;;10.33;5.60;;;9.70;13.40;;;;;;5074558;28;20814;-64
2023/12/15 11:02:38;;;;;;;11.90;6.50;;;9.60;13.50;;;;;;5068348;28;20473;-65
2023/12/15 11:05:09;;;;;;;10.33;6.53;;;9.50;13.90;;;;;;5074265;28;20504;-66
2023/12/15 11:07:36;;;;;;;11.70;6.23;;;9.40;13.80;;;;;;5078003;28;20802;-65
2023/12/15 11:10:03;;;;;;;9.70;6.70;;;9.30;14.20;;;;;;5073103;28;20461;-64
2023/12/15 11:12:32;;;;;;;9.93;6.47;;;9.20;14.20;;;;;;5073006;28;20472;-66
2023/12/15 11:15:00;;;;;;;11.30;6.97;;;9.10;14.50;;;;;;5067040;28;20472;-66
2023/12/15 11:17:29;;;;;;;10.80;6.63;;;9.10;14.90;;;;;;5066851;28;20477;-63
2023/12/15 11:20:06;;;;;;;11.37;7.33;;;9.00;15.00;;;;;;5068483;28;20466;-63
2023/12/15 11:22:41;;;;;;;8.80;6.00;;;9.00;15.00;;;;;;5070353;28;21016;-64
2023/12/15 11:25:08;;;;;;;11.53;6.80;;;9.00;15.00;;;;;;5060930;28;20484;-65
2023/12/15 11:28:07;;;;;;;11.70;6.87;;;9.00;15.20;;;;;;5069384;28;20453;-65
2023/12/15 11:30:36;;;;;;;14.20;6.40;;;9.00;15.10;;;;;;5066242;28;20492;-65
2023/12/15 11:33:42;;;;;;;11.30;6.80;;;9.00;15.10;;;;;;5069964;28;20512;-65
2023/12/15 11:36:09;;;;;;;10.60;6.57;;;8.90;15.40;;;;;;5055997;28;20489;-65
2023/12/15 11:38:37;;;;;;;9.40;6.20;;;8.90;15.50;;;;;;5069112;28;20464;-65
2023/12/15 11:41:04;;;;;;;12.10;6.50;;;9.00;15.40;;;;;;5069123;28;20510;-65
2023/12/15 11:43:32;;;;;;;10.10;7.20;;;8.90;15.20;;;;;;5072741;28;20476;-64
2023/12/15 11:45:59;;;;;;;12.77;6.63;;;8.90;15.40;;;;;;5066080;28;20937;-65
2023/12/15 11:48:27;;;;;;;11.30;6.20;;;8.90;15.60;;;;;;5077760;28;20453;-64
2023/12/15 11:50:54;;;;;;;15.80;7.40;;;8.90;15.60;;;;;;5069231;28;20460;-64
2023/12/15 11:53:22;;;;;;;8.10;6.17;;;9.00;15.50;;;;;;5066388;28;20614;-64
2023/12/15 11:55:50;;;;;;;10.20;6.43;;;9.00;15.20;;;;;;5074613;28;20480;-64
2023/12/15 11:58:18;;;;;;;9.67;6.60;;;9.00;15.20;;;;;;5065991;28;20461;-64
2023/12/15 12:00:45;;;;;;;9.97;5.83;;;9.00;15.30;;;;;;5069530;28;21017;-64
2023/12/15 12:03:13;;;;;;;11.30;6.30;;;9.00;15.30;;;;;;5067966;28;20469;-64
2023/12/15 12:05:42;;;;;;;10.27;6.37;;;9.00;15.40;;;;;;5069205;28;20538;-64
2023/12/15 12:08:10;;;;;;;11.00;6.60;;;9.00;15.40;;;;;;5074609;28;20453;-64
2023/12/15 12:10:39;;;;;;;10.80;6.77;;;9.00;15.60;;;;;;5065265;28;21028;-64
2023/12/15 12:13:06;;;;;;;9.63;6.33;;;9.00;15.60;;;;;;5073391;28;20932;-64
2023/12/15 12:15:33;;;;;;;9.63;6.10;;;9.00;15.50;;;;;;5067178;28;20460;-64
2023/12/15 12:18:00;;;;;;;10.13;6.60;;;9.00;15.50;;;;;;5070863;28;21002;-64
2023/12/15 12:20:29;;;;;;;11.23;7.00;;;9.00;15.50;;;;;;5070628;28;20469;-64
2023/12/15 12:22:57;;;;;;;8.00;5.67;;;9.00;15.50;;;;;;5065419;28;20492;-64
2023/12/15 12:25:23;;;;;;;9.30;5.90;;;9.00;15.50;;;;;;5067022;28;20457;-64
2023/12/15 12:27:52;;;;;;;8.30;6.03;;;9.00;15.30;;;;;;5072512;28;20456;-65
2023/12/15 12:30:20;;;;;;;8.90;5.90;;;9.00;15.40;;;;;;5070213;28;20453;-65
2023/12/15 12:32:48;;;;;;;9.73;5.40;;;9.00;15.50;;;;;;5066854;28;21009;-65
2023/12/15 12:35:15;;;;;;;10.37;6.47;;;9.00;15.60;;;;;;5075032;28;20464;-65
2023/12/15 12:37:42;;;;;;;9.07;5.70;;;9.00;15.70;;;;;;5081006;28;20475;-65
2023/12/15 12:40:12;;;;;;;9.97;6.63;;;9.00;15.70;;;;;;5072853;28;20453;-65
2023/12/15 12:42:38;;;;;;;9.13;5.93;;;9.00;15.70;;;;;;5066888;28;20481;-64
2023/12/15 12:45:07;;;;;;;9.60;5.57;;;9.00;15.70;;;;;;5077691;28;21237;-65
2023/12/15 12:47:37;;;;;;;9.00;6.10;;;9.00;15.80;;;;;;5073119;28;20453;-65
2023/12/15 12:50:04;;;;;;;11.83;7.33;;;9.00;15.70;;;;;;5076275;28;20474;-65
2023/12/15 12:52:31;;;;;;;8.20;5.10;;;9.00;15.80;;;;;;5071419;28;20515;-64
2023/12/15 12:54:58;;;;;;;8.83;5.50;;;9.00;15.80;;;;;;5072606;28;20457;-65